Armourdale, North Dakota
Current Conditions -  °F | °C
As of 6:15 AM on Saturday 20 Dec 2014 (Local Time) from K06D Reporting Station
Haze Haze  
Wind Chill: 17°   Ceiling: 200
Heat Index: 23°   Visibility: 1mi
Dew Point: 23°   Wind: 5mph
Humidity: 100%   Direction: 170°S
Pressure: 29.93"   Gusts: NA
Location:  48.8584°N, 99.1311°W
Report Text: K06D 201215Z AUTO 17004KT 1SM BR OVC002 M05/M05 A2993 RMK AO2
Loading
Personal Weather Stations






























Interactive Weather Map New forecast layout! Learn more

10-Day Weather Forecast

Advertisements
Track Severe Weather on mobile